Time;durP1;ratioP1;P1;durP2;ratioP2;P2;SDS_P1;SDS_P2;PMS_P1;PMS_P2;Temp;Humidity;BMP_temperature;BMP_pressure;BME280_temperature;BME280_humidity;BME280_pressure;Samples;Min_cycle;Max_cycle;Signal;HPM_P1;HPM_P2
2022/05/26 00:02:47;;;;;;;0.40;0.40;;;15.30;90.40;;;;;;5073122;28;20299;-72
2022/05/26 00:05:36;;;;;;;0.40;0.40;;;15.20;90.30;;;;;;5073523;28;20208;-71
2022/05/26 00:08:26;;;;;;;1.70;1.60;;;15.20;90.50;;;;;;5073656;28;20204;-70
2022/05/26 00:11:16;;;;;;;0.40;0.40;;;15.10;90.70;;;;;;5086004;28;20203;-71
2022/05/26 00:14:11;;;;;;;0.40;0.40;;;15.00;90.80;;;;;;5072638;28;20224;-71
2022/05/26 00:17:00;;;;;;;0.40;0.40;;;15.00;91.00;;;;;;5072574;28;20197;-71
2022/05/26 00:19:48;;;;;;;0.40;0.40;;;15.00;91.10;;;;;;5072407;28;20282;-72
2022/05/26 00:22:38;;;;;;;0.43;0.43;;;15.00;91.10;;;;;;5072586;28;20220;-71
2022/05/26 00:25:26;;;;;;;0.40;0.40;;;15.10;91.20;;;;;;5078937;28;20220;-70
2022/05/26 00:28:15;;;;;;;0.40;0.40;;;15.00;91.40;;;;;;5091908;28;20196;-70
2022/05/26 00:31:03;;;;;;;0.40;0.40;;;15.10;91.00;;;;;;5092420;28;20207;-71
2022/05/26 00:33:51;;;;;;;0.40;0.40;;;15.20;91.00;;;;;;5092518;28;20298;-70
2022/05/26 00:36:41;;;;;;;0.50;0.50;;;15.20;91.00;;;;;;5093023;28;20211;-72
2022/05/26 00:39:30;;;;;;;0.40;0.40;;;15.20;90.90;;;;;;5091891;28;20195;-72
2022/05/26 00:42:19;;;;;;;0.50;0.50;;;15.30;90.90;;;;;;5091981;28;20204;-70
2022/05/26 00:45:08;;;;;;;0.40;0.40;;;15.30;90.90;;;;;;5092360;28;20200;-71
2022/05/26 00:47:57;;;;;;;0.50;0.50;;;15.30;90.80;;;;;;5092995;28;20203;-70
2022/05/26 00:50:48;;;;;;;0.40;0.40;;;15.30;90.60;;;;;;5092462;28;20196;-72
2022/05/26 00:53:42;;;;;;;0.40;0.40;;;15.40;90.60;;;;;;5091456;28;20216;-70
2022/05/26 00:56:39;;;;;;;0.40;0.40;;;15.40;90.60;;;;;;5092398;28;20716;-72
2022/05/26 00:59:36;;;;;;;0.50;0.50;;;15.50;90.70;;;;;;5090613;28;20222;-71
2022/05/26 01:02:32;;;;;;;0.40;0.40;;;15.40;90.90;;;;;;5092933;28;20212;-73
2022/05/26 01:05:24;;;;;;;0.50;0.50;;;15.40;90.80;;;;;;5091594;28;20485;-71
2022/05/26 01:08:20;;;;;;;0.50;0.50;;;15.40;91.00;;;;;;5091457;28;20200;-73
2022/05/26 01:11:08;;;;;;;0.40;0.40;;;15.40;90.50;;;;;;5092583;28;20349;-70
2022/05/26 01:14:01;;;;;;;0.50;0.50;;;15.40;90.60;;;;;;5091941;28;20219;-71
2022/05/26 01:17:05;;;;;;;0.40;0.40;;;15.40;90.30;;;;;;5090991;28;20584;-72
2022/05/26 01:20:19;;;;;;;0.67;0.67;;;15.40;90.40;;;;;;5091360;28;20235;-72
2022/05/26 01:23:34;;;;;;;0.40;0.40;;;15.50;90.40;;;;;;5092492;28;20650;-73
2022/05/26 01:26:43;;;;;;;0.70;0.52;;;15.40;90.30;;;;;;5077388;28;20205;-70
2022/05/26 01:30:01;;;;;;;0.40;0.40;;;15.50;90.40;;;;;;5075238;28;20210;-72
2022/05/26 01:33:22;;;;;;;0.40;0.40;;;15.40;90.50;;;;;;5075446;28;20728;-74
2022/05/26 01:36:22;;;;;;;0.50;0.50;;;15.40;90.60;;;;;;5064181;28;20527;-73
2022/05/26 01:39:24;;;;;;;0.40;0.40;;;15.40;90.60;;;;;;5071211;28;20233;-73
2022/05/26 01:42:21;;;;;;;0.40;0.40;;;15.40;90.60;;;;;;5069696;28;20220;-72
2022/05/26 01:45:17;;;;;;;0.50;0.50;;;15.50;90.70;;;;;;5076083;28;20815;-71
2022/05/26 01:48:14;;;;;;;0.40;0.40;;;15.50;90.50;;;;;;5074811;28;20246;-72
2022/05/26 01:51:07;;;;;;;0.40;0.40;;;15.50;90.40;;;;;;5075436;28;20579;-71
2022/05/26 01:54:06;;;;;;;0.40;0.40;;;15.50;90.40;;;;;;5075061;28;20220;-70
2022/05/26 01:57:00;;;;;;;0.40;0.40;;;15.60;90.50;;;;;;5075312;28;20200;-72
2022/05/26 01:59:51;;;;;;;0.50;0.50;;;15.60;90.60;;;;;;5086400;28;20203;-71
2022/05/26 02:02:43;;;;;;;0.50;0.50;;;15.50;90.60;;;;;;5078584;28;20286;-71
2022/05/26 02:05:36;;;;;;;0.40;0.40;;;15.50;90.70;;;;;;5082179;28;20197;-70
2022/05/26 02:08:32;;;;;;;1.33;1.23;;;15.50;90.80;;;;;;5092648;28;20419;-70
2022/05/26 02:11:22;;;;;;;0.43;0.43;;;15.50;90.90;;;;;;5090993;28;20196;-71
2022/05/26 02:14:13;;;;;;;0.50;0.50;;;15.70;91.10;;;;;;5094493;28;20221;-70
2022/05/26 02:17:07;;;;;;;0.40;0.40;;;15.50;91.10;;;;;;5093990;28;20195;-71
2022/05/26 02:20:00;;;;;;;0.40;0.40;;;15.50;91.10;;;;;;5093192;28;20204;-71
2022/05/26 02:22:54;;;;;;;0.40;0.40;;;15.70;91.30;;;;;;5094343;28;20220;-70
2022/05/26 02:25:44;;;;;;;0.40;0.40;;;15.50;91.30;;;;;;5094709;28;20204;-71
2022/05/26 02:29:51;;;;;;;0.70;0.70;;;15.60;91.40;;;;;;5093434;28;20235;-70
2022/05/26 02:31:44;;;;;;;0.50;0.50;;;15.60;91.40;;;;;;5093927;28;20200;-71
2022/05/26 02:34:34;;;;;;;0.93;0.93;;;15.70;91.50;;;;;;5093734;28;20215;-70
2022/05/26 02:37:25;;;;;;;0.40;0.40;;;15.70;91.50;;;;;;5089339;28;20201;-70
2022/05/26 02:40:14;;;;;;;0.70;0.70;;;15.70;91.60;;;;;;5089545;28;20215;-71
2022/05/26 02:43:07;;;;;;;0.50;0.50;;;15.70;91.60;;;;;;5074919;28;20652;-73
2022/05/26 02:46:07;;;;;;;0.40;0.40;;;15.80;91.60;;;;;;5073197;28;20642;-71
2022/05/26 02:49:13;;;;;;;0.40;0.40;;;15.80;91.70;;;;;;5073851;28;20197;-72
2022/05/26 02:52:11;;;;;;;0.50;0.50;;;15.80;91.80;;;;;;5073610;28;20208;-71
2022/05/26 02:55:12;;;;;;;0.60;0.53;;;15.80;91.70;;;;;;5074336;28;20200;-70
2022/05/26 02:58:10;;;;;;;0.50;0.50;;;15.80;91.70;;;;;;5073999;28;20201;-71
2022/05/26 03:01:04;;;;;;;0.50;0.50;;;15.80;91.70;;;;;;5073658;28;20209;-70
2022/05/26 03:03:59;;;;;;;0.50;0.50;;;15.80;91.70;;;;;;5074496;28;20225;-71
2022/05/26 03:06:51;;;;;;;0.40;0.40;;;15.80;91.70;;;;;;5073364;28;20196;-70
2022/05/26 03:09:41;;;;;;;0.47;0.47;;;15.80;91.80;;;;;;5073430;28;20262;-70
2022/05/26 03:12:32;;;;;;;1.85;1.75;;;15.80;91.80;;;;;;5073727;28;20217;-70
2022/05/26 03:15:23;;;;;;;0.40;0.40;;;15.70;91.90;;;;;;5072599;28;20205;-71
2022/05/26 03:18:11;;;;;;;0.40;0.40;;;15.70;92.10;;;;;;5073021;28;20603;-72
2022/05/26 03:21:00;;;;;;;0.40;0.40;;;15.50;92.30;;;;;;5072133;28;20207;-70
2022/05/26 03:23:48;;;;;;;0.40;0.40;;;15.70;92.50;;;;;;5073134;28;20244;-71
2022/05/26 03:26:36;;;;;;;0.40;0.40;;;15.70;92.60;;;;;;5091382;28;20200;-71
2022/05/26 03:29:24;;;;;;;0.52;0.52;;;15.70;92.80;;;;;;5092675;28;20422;-73
2022/05/26 03:32:14;;;;;;;0.40;0.40;;;15.80;93.00;;;;;;5093586;28;20695;-72
2022/05/26 03:41:14;;;;;;;0.50;0.50;;;15.80;93.50;;;;;;5093257;28;20230;-71
2022/05/26 03:44:02;;;;;;;0.40;0.40;;;15.80;93.50;;;;;;5092230;28;20224;-72
2022/05/26 03:46:51;;;;;;;0.50;0.50;;;15.80;93.60;;;;;;5092832;28;20192;-73
2022/05/26 03:49:41;;;;;;;0.40;0.40;;;15.80;93.90;;;;;;5093088;28;20672;-71
2022/05/26 03:52:29;;;;;;;0.40;0.40;;;15.80;94.10;;;;;;5092066;28;20215;-70
2022/05/26 03:55:17;;;;;;;0.40;0.40;;;15.80;94.40;;;;;;5093186;28;20207;-71
2022/05/26 03:58:05;;;;;;;0.40;0.40;;;15.80;94.70;;;;;;5091430;28;20192;-70
2022/05/26 04:00:53;;;;;;;0.40;0.40;;;15.80;94.80;;;;;;5093664;28;20211;-72
2022/05/26 04:03:42;;;;;;;0.80;0.80;;;15.80;95.00;;;;;;5092200;28;20600;-70
2022/05/26 04:06:31;;;;;;;0.40;0.40;;;15.80;95.10;;;;;;5093787;28;20200;-71
2022/05/26 04:09:19;;;;;;;0.50;0.50;;;15.90;95.20;;;;;;5094735;28;20708;-70
2022/05/26 04:12:09;;;;;;;0.40;0.40;;;15.90;95.20;;;;;;5094761;28;20673;-71
2022/05/26 04:14:57;;;;;;;0.50;0.50;;;15.90;95.30;;;;;;5093349;28;20196;-72
2022/05/26 04:17:45;;;;;;;0.50;0.50;;;16.00;95.40;;;;;;5092896;28;20200;-71
2022/05/26 04:20:33;;;;;;;0.82;0.82;;;16.00;95.60;;;;;;5093618;28;20342;-69
2022/05/26 04:23:23;;;;;;;0.50;0.50;;;16.00;95.50;;;;;;5091841;28;20216;-71
2022/05/26 04:26:16;;;;;;;0.50;0.50;;;16.00;95.70;;;;;;5078669;28;20280;-73
2022/05/26 04:29:14;;;;;;;0.50;0.50;;;16.10;95.60;;;;;;5071492;28;20254;-71
2022/05/26 04:32:03;;;;;;;0.50;0.50;;;16.10;95.60;;;;;;5071492;28;20201;-70
2022/05/26 04:34:51;;;;;;;0.50;0.50;;;16.10;95.80;;;;;;5071675;28;20207;-71
2022/05/26 04:37:40;;;;;;;0.47;0.47;;;16.10;96.00;;;;;;5072610;28;20205;-71
2022/05/26 04:40:30;;;;;;;0.40;0.40;;;16.20;96.00;;;;;;5072655;28;20205;-70
2022/05/26 04:43:18;;;;;;;1.15;0.88;;;16.20;96.20;;;;;;5071840;28;20216;-72
2022/05/26 04:46:06;;;;;;;0.40;0.40;;;16.10;96.40;;;;;;5072246;28;20610;-70
2022/05/26 04:48:54;;;;;;;1.95;0.70;;;16.20;96.70;;;;;;5071509;28;20201;-69
2022/05/26 04:51:42;;;;;;;1.00;0.90;;;16.30;96.90;;;;;;5071081;28;20250;-69
2022/05/26 04:54:30;;;;;;;0.45;0.45;;;16.20;97.10;;;;;;5073090;28;20596;-71
2022/05/26 04:57:22;;;;;;;0.50;0.50;;;16.20;97.40;;;;;;5071168;28;20231;-69
2022/05/26 05:00:13;;;;;;;0.50;0.50;;;16.10;98.00;;;;;;5071948;28;20205;-72
2022/05/26 05:03:01;;;;;;;1.50;0.80;;;16.20;97.90;;;;;;5073745;28;20231;-72
2022/05/26 05:05:49;;;;;;;0.73;0.63;;;16.30;97.90;;;;;;5076124;28;20204;-71
2022/05/26 05:08:38;;;;;;;0.40;0.40;;;16.20;98.20;;;;;;5076362;28;20201;-71
2022/05/26 05:11:26;;;;;;;4.40;1.25;;;16.10;98.80;;;;;;5075221;28;20200;-72
2022/05/26 05:14:16;;;;;;;0.50;0.50;;;16.10;99.00;;;;;;5076216;28;20637;-70
2022/05/26 05:17:05;;;;;;;0.40;0.40;;;16.20;99.10;;;;;;5075857;28;20207;-71
2022/05/26 05:19:53;;;;;;;0.68;0.68;;;16.20;99.20;;;;;;5076100;28;20210;-69
2022/05/26 05:22:48;;;;;;;0.50;0.50;;;16.40;99.40;;;;;;5075091;28;20225;-73
2022/05/26 05:25:41;;;;;;;0.50;0.50;;;16.30;99.60;;;;;;5084980;28;20203;-71
2022/05/26 05:28:32;;;;;;;0.45;0.45;;;16.30;99.80;;;;;;5095737;28;20312;-69
2022/05/26 05:31:26;;;;;;;0.50;0.50;;;16.50;99.90;;;;;;5095748;28;20204;-69
2022/05/26 05:34:17;;;;;;;0.40;0.40;;;16.70;99.60;;;;;;5096341;28;20216;-70
2022/05/26 05:37:06;;;;;;;0.70;0.70;;;16.90;99.30;;;;;;5095648;28;20680;-71
2022/05/26 05:39:55;;;;;;;0.40;0.40;;;17.00;99.20;;;;;;5096496;28;20196;-70
2022/05/26 05:42:43;;;;;;;0.47;0.47;;;17.40;99.00;;;;;;5094955;28;20320;-72
2022/05/26 05:45:31;;;;;;;0.50;0.50;;;17.60;98.80;;;;;;5094740;28;20200;-71
2022/05/26 05:48:21;;;;;;;0.50;0.50;;;17.60;98.80;;;;;;5095289;28;20682;-70
2022/05/26 05:51:09;;;;;;;0.40;0.40;;;17.50;98.70;;;;;;5094608;28;20204;-71
2022/05/26 05:53:57;;;;;;;0.50;0.50;;;17.60;98.80;;;;;;5096478;28;20220;-73
2022/05/26 05:56:46;;;;;;;0.70;0.70;;;17.60;98.90;;;;;;5095239;28;20212;-71
2022/05/26 05:59:35;;;;;;;0.73;0.73;;;17.70;98.60;;;;;;5096178;28;20204;-70
2022/05/26 06:02:23;;;;;;;2.97;1.92;;;17.70;99.00;;;;;;5095246;28;20611;-70
2022/05/26 06:05:22;;;;;;;0.40;0.40;;;17.70;98.60;;;;;;5095005;28;20749;-71
2022/05/26 06:08:10;;;;;;;0.60;0.60;;;17.70;98.80;;;;;;5095466;28;20207;-69
2022/05/26 06:10:59;;;;;;;1.13;1.02;;;17.70;98.60;;;;;;5100398;28;20195;-69
2022/05/26 06:13:47;;;;;;;0.60;0.60;;;17.70;98.60;;;;;;5098050;28;20223;-70
2022/05/26 06:16:36;;;;;;;0.40;0.40;;;17.70;98.50;;;;;;5094857;28;20196;-71
2022/05/26 06:19:24;;;;;;;0.40;0.40;;;17.60;98.90;;;;;;5095899;28;20207;-71
2022/05/26 06:22:17;;;;;;;0.60;0.60;;;17.70;98.90;;;;;;5094454;28;20200;-70
2022/05/26 06:25:07;;;;;;;0.63;0.63;;;17.80;99.20;;;;;;5091107;28;20196;-72
2022/05/26 06:31:01;;;;;;;0.50;0.50;;;17.80;98.70;;;;;;5075462;28;20669;-70
2022/05/26 06:40:02;;;;;;;0.50;0.50;;;18.10;99.00;;;;;;5074944;28;20200;-73
2022/05/26 06:42:50;;;;;;;0.63;0.63;;;18.30;98.90;;;;;;5073633;28;20221;-69
2022/05/26 06:45:39;;;;;;;0.70;0.70;;;18.40;98.90;;;;;;5074047;28;20284;-71
2022/05/26 06:48:27;;;;;;;0.40;0.40;;;18.40;98.80;;;;;;5074173;28;20280;-70
2022/05/26 06:51:15;;;;;;;0.40;0.40;;;18.40;98.80;;;;;;5075094;28;20201;-72
2022/05/26 06:54:04;;;;;;;1.30;1.20;;;18.40;99.20;;;;;;5073489;28;20228;-71
2022/05/26 06:56:54;;;;;;;0.82;0.82;;;18.30;99.10;;;;;;5074172;28;20223;-70
2022/05/26 06:59:42;;;;;;;0.50;0.50;;;18.10;99.80;;;;;;5073065;28;20200;-69
2022/05/26 07:02:30;;;;;;;2.65;1.40;;;18.10;99.90;;;;;;5074052;28;20233;-70
2022/05/26 07:05:19;;;;;;;0.60;0.60;;;18.00;99.90;;;;;;5073491;28;20681;-72
2022/05/26 07:08:07;;;;;;;2.55;2.10;;;17.70;99.90;;;;;;5074403;28;20200;-71
2022/05/26 07:11:00;;;;;;;1.58;1.48;;;17.40;99.90;;;;;;5072560;28;20204;-73
2022/05/26 07:13:50;;;;;;;1.90;1.80;;;16.80;99.90;;;;;;5073000;28;20220;-70
2022/05/26 07:16:38;;;;;;;2.43;1.57;;;15.80;99.90;;;;;;5073793;28;20202;-69
2022/05/26 07:19:27;;;;;;;3.23;2.37;;;15.20;99.90;;;;;;5072492;28;20480;-70
2022/05/26 07:22:15;;;;;;;1.53;1.43;;;14.90;99.90;;;;;;5072891;28;20262;-70
2022/05/26 07:25:04;;;;;;;2.40;1.80;;;14.70;99.90;;;;;;5076794;28;20458;-72
2022/05/26 07:27:53;;;;;;;0.47;0.47;;;14.50;99.90;;;;;;5092462;28;20203;-72
2022/05/26 07:30:42;;;;;;;2.97;2.50;;;14.30;99.90;;;;;;5092167;28;20430;-72
2022/05/26 07:33:31;;;;;;;0.70;0.70;;;14.30;99.90;;;;;;5092783;28;20435;-72
2022/05/26 07:42:33;;;;;;;1.83;1.67;;;14.10;99.90;;;;;;5092365;28;20450;-73
2022/05/26 07:45:21;;;;;;;2.03;1.27;;;14.10;99.90;;;;;;5092316;28;20453;-70
2022/05/26 07:48:10;;;;;;;0.70;0.70;;;14.20;99.90;;;;;;5091841;28;20419;-70
2022/05/26 07:50:59;;;;;;;1.33;1.23;;;14.20;99.90;;;;;;5091884;28;20426;-70
2022/05/26 07:53:47;;;;;;;0.80;0.80;;;14.30;99.90;;;;;;5091930;28;20450;-71
2022/05/26 07:56:38;;;;;;;0.83;0.83;;;14.40;99.90;;;;;;5092842;28;20445;-71
2022/05/26 07:59:26;;;;;;;0.90;0.90;;;14.60;99.90;;;;;;5092139;28;20430;-70
2022/05/26 08:02:15;;;;;;;0.77;0.77;;;14.90;99.90;;;;;;5091616;28;20677;-70
2022/05/26 08:05:06;;;;;;;2.00;1.23;;;15.20;99.90;;;;;;5092211;28;20220;-70
2022/05/26 08:07:54;;;;;;;1.53;1.13;;;15.60;99.90;;;;;;5092332;28;20760;-71
2022/05/26 08:10:42;;;;;;;1.17;1.07;;;15.90;99.90;;;;;;5092848;28;20433;-70
2022/05/26 08:13:31;;;;;;;0.70;0.70;;;16.30;99.90;;;;;;5095237;28;20993;-70
2022/05/26 08:16:19;;;;;;;0.50;0.50;;;16.50;99.90;;;;;;5093275;28;20192;-69
2022/05/26 08:19:07;;;;;;;0.40;0.40;;;16.70;99.90;;;;;;5091943;28;20200;-70
2022/05/26 08:21:57;;;;;;;0.40;0.40;;;16.70;99.90;;;;;;5091839;28;20200;-70
2022/05/26 08:24:50;;;;;;;2.00;1.30;;;16.50;99.90;;;;;;5093681;28;20465;-71
2022/05/26 08:27:38;;;;;;;0.50;0.50;;;16.50;99.90;;;;;;5091997;28;20199;-70
2022/05/26 08:30:27;;;;;;;0.40;0.40;;;16.50;99.90;;;;;;5092444;28;20278;-70
2022/05/26 08:33:15;;;;;;;0.50;0.50;;;16.50;99.90;;;;;;5091060;28;20598;-71
2022/05/26 08:36:06;;;;;;;2.13;2.03;;;16.60;99.90;;;;;;5092987;28;20196;-68
2022/05/26 08:38:56;;;;;;;3.17;1.30;;;16.90;99.90;;;;;;5097784;28;20200;-69
2022/05/26 08:41:47;;;;;;;1.50;1.40;;;17.10;99.90;;;;;;5097265;28;20196;-69
2022/05/26 08:44:39;;;;;;;0.85;0.85;;;17.40;99.90;;;;;;5096709;28;20219;-71
2022/05/26 08:47:31;;;;;;;0.60;0.60;;;17.90;99.90;;;;;;5095850;28;20196;-70
2022/05/26 08:50:22;;;;;;;2.25;1.60;;;18.30;99.90;;;;;;5096304;28;20599;-70
2022/05/26 08:53:17;;;;;;;1.50;1.10;;;18.40;99.90;;;;;;5099457;28;20224;-69
2022/05/26 08:56:11;;;;;;;0.80;0.63;;;18.50;99.90;;;;;;5107613;28;20200;-70
2022/05/26 08:59:08;;;;;;;1.42;1.35;;;18.60;99.90;;;;;;5106765;28;20203;-69
2022/05/26 09:01:58;;;;;;;0.45;0.45;;;18.80;99.90;;;;;;5107397;28;20204;-72
2022/05/26 09:04:46;;;;;;;1.60;1.20;;;19.10;99.90;;;;;;5108048;28;20220;-70
2022/05/26 09:13:54;;;;;;;1.23;0.80;;;19.30;99.90;;;;;;5107548;28;20228;-69
2022/05/26 09:16:44;;;;;;;0.40;0.40;;;19.00;99.90;;;;;;5107868;28;20208;-71
2022/05/26 09:19:47;;;;;;;0.40;0.40;;;19.20;99.90;;;;;;5107467;28;20201;-70
2022/05/26 09:22:42;;;;;;;0.70;0.70;;;19.50;99.90;;;;;;5104403;28;20242;-70
2022/05/26 09:25:36;;;;;;;0.60;0.50;;;19.60;99.90;;;;;;5096324;28;20209;-71
2022/05/26 09:28:34;;;;;;;0.75;0.75;;;19.50;99.90;;;;;;5085729;28;20200;-70
2022/05/26 09:31:32;;;;;;;0.70;0.70;;;19.70;99.90;;;;;;5082934;28;20208;-70
2022/05/26 09:34:22;;;;;;;0.60;0.60;;;19.50;99.90;;;;;;5082792;28;20792;-69
2022/05/26 09:37:38;;;;;;;1.05;0.95;;;19.60;99.90;;;;;;5079070;28;20679;-70
2022/05/26 09:40:29;;;;;;;2.28;1.05;;;20.00;99.90;;;;;;5074822;28;20204;-70
2022/05/26 09:43:25;;;;;;;1.88;1.10;;;20.10;99.90;;;;;;5075541;28;20510;-70
2022/05/26 09:46:16;;;;;;;0.60;0.60;;;20.00;99.90;;;;;;5073816;28;20223;-73
2022/05/26 09:49:11;;;;;;;0.60;0.60;;;20.00;99.90;;;;;;5073472;28;20193;-71
2022/05/26 09:52:18;;;;;;;0.90;0.90;;;20.20;99.90;;;;;;5073608;28;20232;-70
2022/05/26 09:55:18;;;;;;;0.40;0.40;;;20.40;99.90;;;;;;5073314;28;20200;-71
2022/05/26 09:58:09;;;;;;;0.55;0.55;;;20.30;99.90;;;;;;5074689;28;20201;-70
2022/05/26 10:00:59;;;;;;;0.60;0.60;;;20.60;99.90;;;;;;5073750;28;20208;-70
2022/05/26 10:03:57;;;;;;;0.40;0.40;;;20.40;99.90;;;;;;5074197;28;20224;-72
2022/05/26 10:06:55;;;;;;;0.50;0.50;;;19.90;99.90;;;;;;5073947;28;20204;-71
2022/05/26 10:09:52;;;;;;;0.60;0.60;;;19.50;99.90;;;;;;5075545;28;20212;-72
2022/05/26 10:12:50;;;;;;;0.50;0.50;;;19.10;99.90;;;;;;5074093;28;20213;-72
2022/05/26 10:15:50;;;;;;;0.82;0.82;;;19.10;99.90;;;;;;5074085;28;20193;-70
2022/05/26 10:18:52;;;;;;;0.70;0.60;;;19.40;99.90;;;;;;5075059;28;20208;-72
2022/05/26 10:21:56;;;;;;;0.70;0.70;;;19.90;99.90;;;;;;5073790;28;20207;-70
2022/05/26 10:25:01;;;;;;;0.77;0.77;;;20.00;99.90;;;;;;5075249;28;20227;-70
2022/05/26 10:28:19;;;;;;;2.83;1.55;;;20.20;99.90;;;;;;5092691;28;20253;-71
2022/05/26 10:31:21;;;;;;;7.28;2.95;;;20.50;99.90;;;;;;5094917;28;20196;-71
2022/05/26 10:34:30;;;;;;;0.70;0.70;;;20.70;99.90;;;;;;5093709;28;20226;-71
2022/05/26 10:37:29;;;;;;;0.50;0.50;;;20.60;99.90;;;;;;5092871;28;20227;-71
2022/05/26 10:40:30;;;;;;;0.50;0.50;;;20.40;99.90;;;;;;5093112;28;20203;-71
2022/05/26 10:43:21;;;;;;;0.65;0.65;;;20.30;99.90;;;;;;5092952;28;20227;-70
2022/05/26 10:46:11;;;;;;;0.40;0.40;;;20.40;99.90;;;;;;5092585;28;20730;-73
2022/05/26 10:49:07;;;;;;;0.50;0.50;;;20.60;99.90;;;;;;5092791;28;20257;-70
2022/05/26 10:52:00;;;;;;;1.50;0.50;;;21.00;99.90;;;;;;5092193;28;20685;-70
2022/05/26 10:54:56;;;;;;;0.70;0.68;;;21.20;99.90;;;;;;5092356;28;20196;-72
2022/05/26 10:57:52;;;;;;;0.70;0.70;;;21.20;99.90;;;;;;5092257;28;20609;-71
2022/05/26 11:00:40;;;;;;;0.40;0.40;;;20.80;99.90;;;;;;5092363;28;20207;-70
2022/05/26 11:03:35;;;;;;;0.77;0.60;;;20.40;99.90;;;;;;5090643;28;20582;-71
2022/05/26 11:06:27;;;;;;;0.40;0.40;;;19.90;99.90;;;;;;5091750;28;20219;-70
2022/05/26 11:09:22;;;;;;;0.40;0.40;;;19.60;99.90;;;;;;5092068;28;20208;-70
2022/05/26 11:12:18;;;;;;;0.65;0.65;;;19.70;99.90;;;;;;5092746;28;20196;-71
2022/05/26 11:18:26;;;;;;;0.40;0.40;;;20.10;99.90;;;;;;5092295;28;20731;-72
2022/05/26 11:21:19;;;;;;;4.45;1.25;;;20.30;99.90;;;;;;5091058;28;20250;-70
2022/05/26 11:24:09;;;;;;;0.77;0.77;;;20.80;99.90;;;;;;5091912;28;20220;-71
2022/05/26 11:27:02;;;;;;;0.60;0.60;;;21.40;99.90;;;;;;5052219;28;20233;-70
2022/05/26 11:29:56;;;;;;;1.10;1.05;;;21.70;99.90;;;;;;5051378;28;20210;-71
2022/05/26 11:36:09;;;;;;;0.57;0.57;;;21.00;99.90;;;;;;5051902;28;20212;-70
2022/05/26 11:39:01;;;;;;;0.88;0.88;;;21.20;99.90;;;;;;5051578;28;20255;-70
2022/05/26 11:41:55;;;;;;;0.80;0.80;;;21.40;99.90;;;;;;5051870;28;20216;-70
2022/05/26 11:44:45;;;;;;;0.60;0.50;;;21.60;99.90;;;;;;5051320;28;20628;-70
2022/05/26 11:47:49;;;;;;;1.30;1.02;;;22.10;99.90;;;;;;5051661;28;20677;-71
2022/05/26 11:50:59;;;;;;;0.80;0.80;;;22.70;99.90;;;;;;5051826;28;20208;-70
2022/05/26 11:53:48;;;;;;;0.40;0.40;;;22.60;99.90;;;;;;5051722;28;20228;-71
2022/05/26 11:56:49;;;;;;;0.88;0.70;;;22.20;99.90;;;;;;5051795;28;20195;-70
2022/05/26 11:59:47;;;;;;;0.80;0.80;;;21.50;99.90;;;;;;5050816;28;20201;-70
2022/05/26 12:02:37;;;;;;;0.50;0.50;;;20.80;99.90;;;;;;5050433;28;20248;-69
2022/05/26 12:05:46;;;;;;;1.25;1.15;;;20.60;99.90;;;;;;5051339;28;20203;-70
2022/05/26 12:08:40;;;;;;;0.50;0.50;;;20.90;99.90;;;;;;5051336;28;20220;-70
2022/05/26 12:11:53;;;;;;;0.88;0.77;;;21.10;99.90;;;;;;5051221;28;20201;-71
2022/05/26 12:14:59;;;;;;;0.70;0.55;;;21.10;99.90;;;;;;5056408;28;20201;-71
2022/05/26 12:17:50;;;;;;;0.45;0.45;;;20.90;99.90;;;;;;5051855;28;20189;-70
2022/05/26 12:20:42;;;;;;;1.42;0.90;;;20.60;99.90;;;;;;5051095;28;20593;-72
2022/05/26 12:23:31;;;;;;;0.40;0.40;;;20.50;99.90;;;;;;5051103;28;20248;-71
2022/05/26 12:26:47;;;;;;;0.50;0.50;;;20.60;99.90;;;;;;5080918;28;20284;-71
2022/05/26 12:30:01;;;;;;;1.00;0.80;;;20.60;99.90;;;;;;5081989;28;20673;-70
2022/05/26 12:32:54;;;;;;;0.50;0.50;;;20.20;99.90;;;;;;5071033;28;20230;-73
2022/05/26 12:35:49;;;;;;;0.40;0.40;;;20.10;99.90;;;;;;5071750;28;20712;-73
2022/05/26 12:38:50;;;;;;;0.63;0.63;;;20.10;99.90;;;;;;5070192;28;20208;-70
2022/05/26 12:41:52;;;;;;;1.15;1.10;;;20.00;99.90;;;;;;5069602;28;20700;-73
2022/05/26 12:45:33;;;;;;;0.40;0.40;;;19.90;99.90;;;;;;5072082;28;20746;-70
2022/05/26 12:48:57;;;;;;;0.40;0.40;;;19.80;99.90;;;;;;5070312;28;20201;-72
2022/05/26 12:51:46;;;;;;;0.40;0.40;;;21.30;99.90;;;;;;5069927;28;20207;-70
2022/05/26 12:54:42;;;;;;;1.25;0.90;;;23.10;99.90;;;;;;5071441;28;20201;-70
2022/05/26 12:57:32;;;;;;;0.82;0.50;;;23.10;99.10;;;;;;5071436;28;20673;-70
2022/05/26 13:00:29;;;;;;;1.02;0.93;;;22.20;99.60;;;;;;5071190;28;20204;-71
2022/05/26 13:03:30;;;;;;;0.40;0.40;;;21.50;99.90;;;;;;5070860;28;20582;-70
2022/05/26 13:06:29;;;;;;;0.85;0.85;;;20.80;99.90;;;;;;5071096;28;20223;-71
2022/05/26 13:09:20;;;;;;;1.00;0.80;;;20.40;99.90;;;;;;5071324;28;20673;-71
2022/05/26 13:12:08;;;;;;;0.40;0.40;;;20.10;99.90;;;;;;5069866;28;20207;-72
2022/05/26 13:14:59;;;;;;;3.08;1.40;;;20.10;99.90;;;;;;5070563;28;20196;-70
2022/05/26 13:17:48;;;;;;;0.40;0.40;;;20.10;99.90;;;;;;5069704;28;20224;-71
2022/05/26 13:20:38;;;;;;;0.93;0.93;;;20.20;99.90;;;;;;5070096;28;20565;-72
2022/05/26 13:23:49;;;;;;;0.40;0.40;;;20.40;99.90;;;;;;5072904;28;20573;-72
2022/05/26 13:26:38;;;;;;;0.50;0.50;;;23.20;96.90;;;;;;5091721;28;20446;-70
2022/05/26 13:29:27;;;;;;;0.45;0.45;;;24.00;94.10;;;;;;5093797;28;20208;-72
2022/05/26 13:35:30;;;;;;;1.40;1.30;;;22.60;94.30;;;;;;5094076;28;20204;-69
2022/05/26 13:38:33;;;;;;;0.93;0.93;;;24.50;93.00;;;;;;5093465;28;20773;-69
2022/05/26 13:41:23;;;;;;;0.50;0.50;;;27.90;84.00;;;;;;5094138;28;20241;-69
2022/05/26 13:44:15;;;;;;;1.77;0.65;;;29.10;75.20;;;;;;5093862;28;20596;-68
2022/05/26 13:47:08;;;;;;;2.25;0.90;;;27.70;72.50;;;;;;5094387;28;20212;-69
2022/05/26 13:50:03;;;;;;;0.50;0.50;;;24.90;76.30;;;;;;5093403;28;20204;-70
2022/05/26 13:52:51;;;;;;;0.40;0.40;;;23.30;80.00;;;;;;5093698;28;20727;-72
2022/05/26 13:55:45;;;;;;;1.35;1.05;;;22.30;83.80;;;;;;5092893;28;20699;-71
2022/05/26 13:58:34;;;;;;;0.45;0.45;;;21.90;85.10;;;;;;5092862;28;20203;-73
2022/05/26 14:01:25;;;;;;;0.73;0.73;;;21.80;86.50;;;;;;5093820;28;20644;-70
2022/05/26 14:04:22;;;;;;;0.55;0.55;;;22.40;86.40;;;;;;5092983;28;20227;-70
2022/05/26 14:07:30;;;;;;;0.50;0.50;;;24.50;82.40;;;;;;5091871;28;20570;-70
2022/05/26 14:10:27;;;;;;;0.52;0.52;;;24.50;81.30;;;;;;5093134;28;20195;-69
2022/05/26 14:13:33;;;;;;;0.40;0.40;;;23.70;81.70;;;;;;5095783;28;20219;-71
2022/05/26 14:16:26;;;;;;;1.95;0.73;;;23.10;84.40;;;;;;5093554;28;20192;-69
2022/05/26 14:19:19;;;;;;;0.50;0.50;;;23.60;83.10;;;;;;5093824;28;20204;-69
2022/05/26 14:22:07;;;;;;;0.50;0.50;;;23.40;82.00;;;;;;5092620;28;20223;-72
2022/05/26 14:24:58;;;;;;;0.60;0.60;;;23.20;82.60;;;;;;5090171;28;20205;-71
2022/05/26 14:27:54;;;;;;;0.50;0.50;;;22.90;82.40;;;;;;5072651;28;20247;-71
2022/05/26 14:30:51;;;;;;;0.40;0.40;;;23.20;82.30;;;;;;5073269;28;20204;-69
2022/05/26 14:33:39;;;;;;;0.40;0.40;;;25.00;80.80;;;;;;5073816;28;20252;-71
2022/05/26 14:36:29;;;;;;;0.93;0.93;;;26.70;76.60;;;;;;5072776;28;20201;-70
2022/05/26 14:39:17;;;;;;;8.25;1.02;;;25.80;75.80;;;;;;5074047;28;20583;-70
2022/05/26 14:42:08;;;;;;;0.70;0.60;;;24.40;76.70;;;;;;5071851;28;20209;-70
2022/05/26 14:44:56;;;;;;;0.82;0.82;;;23.10;79.60;;;;;;5073235;28;20555;-73
2022/05/26 14:47:46;;;;;;;0.40;0.40;;;22.40;82.10;;;;;;5072541;28;20215;-69
2022/05/26 14:50:35;;;;;;;0.70;0.68;;;22.20;82.60;;;;;;5072515;28;20215;-71
2022/05/26 14:55:27;;;;;;;1.85;0.60;;;22.40;82.90;;;;;;5072880;28;20224;-71
2022/05/26 14:56:31;;;;;;;0.40;0.40;;;22.30;83.80;;;;;;5072907;28;20240;-70
2022/05/26 14:59:19;;;;;;;0.70;0.70;;;21.90;85.10;;;;;;5073603;28;20208;-73
2022/05/26 15:02:07;;;;;;;0.50;0.50;;;21.80;85.30;;;;;;5071916;28;20670;-72
2022/05/26 15:04:57;;;;;;;0.40;0.40;;;21.60;86.50;;;;;;5071764;28;20330;-70
2022/05/26 15:07:46;;;;;;;0.75;0.63;;;21.70;87.10;;;;;;5071433;28;20634;-71
2022/05/26 15:10:34;;;;;;;0.50;0.43;;;22.30;85.70;;;;;;5072823;28;20200;-70
2022/05/26 15:13:25;;;;;;;0.40;0.40;;;22.70;84.40;;;;;;5071677;28;20640;-71
2022/05/26 15:16:15;;;;;;;0.40;0.40;;;22.50;84.70;;;;;;5072205;28;20200;-70
2022/05/26 15:19:05;;;;;;;0.60;0.50;;;22.20;85.50;;;;;;5071451;28;20196;-72
2022/05/26 15:21:56;;;;;;;0.40;0.40;;;21.80;86.50;;;;;;5071114;28;20201;-72
2022/05/26 15:24:46;;;;;;;0.50;0.50;;;21.50;86.20;;;;;;5074768;28;20231;-72
2022/05/26 15:27:36;;;;;;;0.45;0.45;;;21.30;86.00;;;;;;5092608;28;20745;-71
2022/05/26 15:30:25;;;;;;;0.50;0.50;;;22.20;84.70;;;;;;5092103;28;20672;-70
2022/05/26 15:33:13;;;;;;;0.40;0.40;;;22.80;83.00;;;;;;5092298;28;20265;-70
2022/05/26 15:36:02;;;;;;;0.50;0.50;;;22.60;83.30;;;;;;5091363;28;20737;-69
2022/05/26 15:38:53;;;;;;;0.50;0.50;;;22.20;84.20;;;;;;5092457;28;20253;-71
2022/05/26 15:41:41;;;;;;;0.70;0.70;;;21.70;84.00;;;;;;5091004;28;20580;-71